sensor_id;sensor_type;location;lat;lon;timestamp;pressure;altitude;pressure_sealevel;temperature;humidity
50282;BME280;36176;51.506;10.272;2022-10-31T00:01:34;99918.38;;;9.62;93.93
50282;BME280;36176;51.506;10.272;2022-10-31T00:04:03;99918.31;;;9.63;93.59
50282;BME280;36176;51.506;10.272;2022-10-31T00:06:31;99920.16;;;9.61;94.21
50282;BME280;36176;51.506;10.272;2022-10-31T00:09:00;99918.31;;;9.63;94.13
50282;BME280;36176;51.506;10.272;2022-10-31T00:11:28;99924.44;;;9.65;94.43
50282;BME280;36176;51.506;10.272;2022-10-31T00:13:59;99926.09;;;9.68;94.35
50282;BME280;36176;51.506;10.272;2022-10-31T00:16:28;99931.31;;;9.69;93.34
50282;BME280;36176;51.506;10.272;2022-10-31T00:18:58;99928.66;;;9.69;94.15
50282;BME280;36176;51.506;10.272;2022-10-31T00:21:26;99923.31;;;9.71;94.11
50282;BME280;36176;51.506;10.272;2022-10-31T00:23:54;99921.50;;;9.73;93.88
50282;BME280;36176;51.506;10.272;2022-10-31T00:26:21;99928.66;;;9.69;94.19
50282;BME280;36176;51.506;10.272;2022-10-31T00:28:48;99927.75;;;9.70;93.84
50282;BME280;36176;51.506;10.272;2022-10-31T00:31:16;99930.56;;;9.66;94.64
50282;BME280;36176;51.506;10.272;2022-10-31T00:33:44;99935.00;;;9.65;94.27
50282;BME280;36176;51.506;10.272;2022-10-31T00:36:15;99935.78;;;9.67;93.86
50282;BME280;36176;51.506;10.272;2022-10-31T00:38:45;99938.50;;;9.66;93.24
50282;BME280;36176;51.506;10.272;2022-10-31T00:41:14;99943.91;;;9.63;93.42
50282;BME280;36176;51.506;10.272;2022-10-31T00:43:45;99943.03;;;9.62;93.82
50282;BME280;36176;51.506;10.272;2022-10-31T00:46:13;99949.13;;;9.64;94.50
50282;BME280;36176;51.506;10.272;2022-10-31T00:48:40;99947.44;;;9.63;93.64
50282;BME280;36176;51.506;10.272;2022-10-31T00:51:08;99957.16;;;9.63;94.06
50282;BME280;36176;51.506;10.272;2022-10-31T00:53:36;99949.13;;;9.64;93.49
50282;BME280;36176;51.506;10.272;2022-10-31T00:56:04;99946.44;;;9.66;93.58
50282;BME280;36176;51.506;10.272;2022-10-31T00:58:31;99946.56;;;9.63;94.00
50282;BME280;36176;51.506;10.272;2022-10-31T01:00:59;99953.63;;;9.62;93.81
50282;BME280;36176;51.506;10.272;2022-10-31T01:03:29;99958.88;;;9.64;93.89
50282;BME280;36176;51.506;10.272;2022-10-31T01:06:09;99950.97;;;9.62;94.09
50282;BME280;36176;51.506;10.272;2022-10-31T01:08:38;99955.47;;;9.60;94.70
50282;BME280;36176;51.506;10.272;2022-10-31T01:11:14;99957.34;;;9.56;94.42
50282;BME280;36176;51.506;10.272;2022-10-31T01:13:45;99958.22;;;9.57;94.96
50282;BME280;36176;51.506;10.272;2022-10-31T01:16:14;99965.25;;;9.58;95.98
50282;BME280;36176;51.506;10.272;2022-10-31T01:18:42;99961.56;;;9.62;95.50
50282;BME280;36176;51.506;10.272;2022-10-31T01:21:13;99958.75;;;9.67;95.67
50282;BME280;36176;51.506;10.272;2022-10-31T01:23:53;99964.81;;;9.70;94.99
50282;BME280;36176;51.506;10.272;2022-10-31T01:26:29;99963.84;;;9.73;95.36
50282;BME280;36176;51.506;10.272;2022-10-31T01:29:05;99973.59;;;9.71;94.94
50282;BME280;36176;51.506;10.272;2022-10-31T01:31:39;99970.97;;;9.71;94.39
50282;BME280;36176;51.506;10.272;2022-10-31T01:34:07;99973.88;;;9.63;94.15
50282;BME280;36176;51.506;10.272;2022-10-31T01:36:37;99973.22;;;9.56;94.97
50282;BME280;36176;51.506;10.272;2022-10-31T01:39:08;99973.22;;;9.56;94.68
50282;BME280;36176;51.506;10.272;2022-10-31T01:41:39;99967.78;;;9.61;95.19
50282;BME280;36176;51.506;10.272;2022-10-31T01:46:50;99966.84;;;9.62;94.97
50282;BME280;36176;51.506;10.272;2022-10-31T01:49:21;99978.41;;;9.59;94.25
50282;BME280;36176;51.506;10.272;2022-10-31T01:51:58;99974.19;;;9.54;94.38
50282;BME280;36176;51.506;10.272;2022-10-31T01:54:31;99975.22;;;9.50;94.76
50282;BME280;36176;51.506;10.272;2022-10-31T01:57:02;99970.19;;;9.42;94.48
50282;BME280;36176;51.506;10.272;2022-10-31T01:59:34;99968.63;;;9.36;94.57
50282;BME280;36176;51.506;10.272;2022-10-31T02:02:03;99974.91;;;9.34;94.43
50282;BME280;36176;51.506;10.272;2022-10-31T02:04:31;99971.47;;;9.30;95.17
50282;BME280;36176;51.506;10.272;2022-10-31T02:07:02;99966.22;;;9.29;95.30
50282;BME280;36176;51.506;10.272;2022-10-31T02:09:31;99975.06;;;9.29;94.30
50282;BME280;36176;51.506;10.272;2022-10-31T02:12:00;99976.03;;;9.27;95.19
50282;BME280;36176;51.506;10.272;2022-10-31T02:14:29;99976.06;;;9.25;94.81
50282;BME280;36176;51.506;10.272;2022-10-31T02:16:57;99971.69;;;9.24;94.54
50282;BME280;36176;51.506;10.272;2022-10-31T02:19:54;99974.50;;;9.20;94.96
50282;BME280;36176;51.506;10.272;2022-10-31T02:22:43;99972.00;;;9.15;95.02
50282;BME280;36176;51.506;10.272;2022-10-31T02:28:07;99979.22;;;9.10;95.27
50282;BME280;36176;51.506;10.272;2022-10-31T02:33:52;99979.41;;;9.04;95.30
50282;BME280;36176;51.506;10.272;2022-10-31T02:36:39;99984.81;;;9.01;95.05
50282;BME280;36176;51.506;10.272;2022-10-31T02:43:20;99989.44;;;8.94;95.68
50282;BME280;36176;51.506;10.272;2022-10-31T02:45:57;99987.75;;;8.91;95.20
50282;BME280;36176;51.506;10.272;2022-10-31T02:48:31;99986.97;;;8.88;95.39
50282;BME280;36176;51.506;10.272;2022-10-31T02:51:03;99988.84;;;8.84;95.10
50282;BME280;36176;51.506;10.272;2022-10-31T02:53:33;99989.84;;;8.80;95.44
50282;BME280;36176;51.506;10.272;2022-10-31T02:56:13;99996.06;;;8.79;94.82
50282;BME280;36176;51.506;10.272;2022-10-31T02:58:55;99989.13;;;8.75;95.37
50282;BME280;36176;51.506;10.272;2022-10-31T03:02:11;100000.78;;;8.69;95.75
50282;BME280;36176;51.506;10.272;2022-10-31T03:10:16;99989.63;;;8.60;95.70
50282;BME280;36176;51.506;10.272;2022-10-31T03:13:01;99991.38;;;8.59;95.98
50282;BME280;36176;51.506;10.272;2022-10-31T03:15:36;99995.81;;;8.59;95.53
50282;BME280;36176;51.506;10.272;2022-10-31T03:18:28;99993.31;;;8.54;95.90
50282;BME280;36176;51.506;10.272;2022-10-31T03:21:13;99993.50;;;8.48;95.79
50282;BME280;36176;51.506;10.272;2022-10-31T03:23:43;99998.13;;;8.40;96.66
50282;BME280;36176;51.506;10.272;2022-10-31T03:26:12;100001.69;;;8.37;96.85
50282;BME280;36176;51.506;10.272;2022-10-31T03:28:50;100003.59;;;8.34;97.33
50282;BME280;36176;51.506;10.272;2022-10-31T03:31:23;100000.03;;;8.35;97.56
50282;BME280;36176;51.506;10.272;2022-10-31T03:33:53;100000.03;;;8.35;97.25
50282;BME280;36176;51.506;10.272;2022-10-31T03:36:34;99997.25;;;8.39;98.12
50282;BME280;36176;51.506;10.272;2022-10-31T03:39:07;100004.25;;;8.42;98.09
50282;BME280;36176;51.506;10.272;2022-10-31T03:41:42;99997.09;;;8.45;98.49
50282;BME280;36176;51.506;10.272;2022-10-31T03:44:16;100000.53;;;8.47;98.68
50282;BME280;36176;51.506;10.272;2022-10-31T03:46:44;99997.88;;;8.49;98.99
50282;BME280;36176;51.506;10.272;2022-10-31T03:49:12;99998.66;;;8.52;98.96
50282;BME280;36176;51.506;10.272;2022-10-31T03:51:50;100002.91;;;8.57;100.00
50282;BME280;36176;51.506;10.272;2022-10-31T03:54:30;100000.13;;;8.61;100.00
50282;BME280;36176;51.506;10.272;2022-10-31T03:57:11;99989.50;;;8.64;100.00
50282;BME280;36176;51.506;10.272;2022-10-31T03:59:46;99998.31;;;8.63;100.00
50282;BME280;36176;51.506;10.272;2022-10-31T04:02:16;100008.91;;;8.62;100.00
50282;BME280;36176;51.506;10.272;2022-10-31T04:04:46;100012.31;;;8.67;100.00
50282;BME280;36176;51.506;10.272;2022-10-31T04:07:15;100010.41;;;8.70;100.00
50282;BME280;36176;51.506;10.272;2022-10-31T04:09:47;100008.56;;;8.74;100.00
50282;BME280;36176;51.506;10.272;2022-10-31T04:12:19;100001.53;;;8.73;99.84
50282;BME280;36176;51.506;10.272;2022-10-31T04:14:48;100000.81;;;8.68;99.24
50282;BME280;36176;51.506;10.272;2022-10-31T04:17:21;99996.53;;;8.64;99.23
50282;BME280;36176;51.506;10.272;2022-10-31T04:19:49;99993.88;;;8.64;98.23
50282;BME280;36176;51.506;10.272;2022-10-31T04:22:16;99992.13;;;8.64;98.81
50282;BME280;36176;51.506;10.272;2022-10-31T04:24:44;99992.28;;;8.60;98.26
50282;BME280;36176;51.506;10.272;2022-10-31T04:27:11;99997.59;;;8.58;98.67
50282;BME280;36176;51.506;10.272;2022-10-31T04:29:56;100000.13;;;8.61;98.78
50282;BME280;36176;51.506;10.272;2022-10-31T04:32:42;100001.91;;;8.61;98.85
50282;BME280;36176;51.506;10.272;2022-10-31T04:35:09;100004.59;;;8.59;98.22
50282;BME280;36176;51.506;10.272;2022-10-31T04:37:37;100010.06;;;8.53;97.66
50282;BME280;36176;51.506;10.272;2022-10-31T04:40:15;100012.84;;;8.48;97.94
50282;BME280;36176;51.506;10.272;2022-10-31T04:43:09;100011.09;;;8.47;97.47
50282;BME280;36176;51.506;10.272;2022-10-31T04:45:51;100008.53;;;8.46;97.53
50282;BME280;36176;51.506;10.272;2022-10-31T04:49:11;100017.44;;;8.42;97.30
50282;BME280;36176;51.506;10.272;2022-10-31T04:51:38;100012.34;;;8.36;96.94
50282;BME280;36176;51.506;10.272;2022-10-31T04:54:24;100026.47;;;8.33;96.97
50282;BME280;36176;51.506;10.272;2022-10-31T04:56:51;100021.34;;;8.28;96.96
50282;BME280;36176;51.506;10.272;2022-10-31T04:59:19;100024.97;;;8.24;97.51
50282;BME280;36176;51.506;10.272;2022-10-31T05:01:46;100010.91;;;8.24;97.89
50282;BME280;36176;51.506;10.272;2022-10-31T05:04:14;100017.91;;;8.25;97.58
50282;BME280;36176;51.506;10.272;2022-10-31T05:06:41;100011.81;;;8.23;97.12
50282;BME280;36176;51.506;10.272;2022-10-31T05:09:08;100011.03;;;8.19;97.84
50282;BME280;36176;51.506;10.272;2022-10-31T05:11:36;100011.03;;;8.19;97.90
50282;BME280;36176;51.506;10.272;2022-10-31T05:14:06;100011.94;;;8.18;97.43
50282;BME280;36176;51.506;10.272;2022-10-31T05:16:34;100010.25;;;8.16;98.08
50282;BME280;36176;51.506;10.272;2022-10-31T05:19:01;100003.25;;;8.15;98.21
50282;BME280;36176;51.506;10.272;2022-10-31T05:21:28;99998.94;;;8.12;97.71
50282;BME280;36176;51.506;10.272;2022-10-31T05:24:14;100003.31;;;8.12;97.51
50282;BME280;36176;51.506;10.272;2022-10-31T05:26:41;99998.09;;;8.10;97.91
50282;BME280;36176;51.506;10.272;2022-10-31T05:29:09;100005.16;;;8.09;97.62
50282;BME280;36176;51.506;10.272;2022-10-31T05:31:36;99997.28;;;8.08;97.71
50282;BME280;36176;51.506;10.272;2022-10-31T05:34:03;100000.69;;;8.12;97.95
50282;BME280;36176;51.506;10.272;2022-10-31T05:36:31;99999.88;;;8.09;97.03
50282;BME280;36176;51.506;10.272;2022-10-31T05:38:58;100005.16;;;8.09;96.84
50282;BME280;36176;51.506;10.272;2022-10-31T05:41:25;100006.97;;;8.07;96.26
50282;BME280;36176;51.506;10.272;2022-10-31T05:43:52;100005.31;;;8.03;96.06
50282;BME280;36176;51.506;10.272;2022-10-31T05:46:20;100005.44;;;7.99;96.48
50282;BME280;36176;51.506;10.272;2022-10-31T05:48:47;100011.69;;;7.96;96.56
50282;BME280;36176;51.506;10.272;2022-10-31T05:51:14;100010.91;;;7.93;96.52
50282;BME280;36176;51.506;10.272;2022-10-31T05:53:42;100009.16;;;7.92;96.39
50282;BME280;36176;51.506;10.272;2022-10-31T05:56:09;100012.75;;;7.89;96.58
50282;BME280;36176;51.506;10.272;2022-10-31T05:58:36;100012.75;;;7.89;96.30
50282;BME280;36176;51.506;10.272;2022-10-31T06:01:03;100014.66;;;7.84;95.99
50282;BME280;36176;51.506;10.272;2022-10-31T06:03:31;100006.84;;;7.81;96.06
50282;BME280;36176;51.506;10.272;2022-10-31T06:05:58;100018.25;;;7.81;96.34
50282;BME280;36176;51.506;10.272;2022-10-31T06:08:26;100016.50;;;7.80;96.77
50282;BME280;36176;51.506;10.272;2022-10-31T06:10:54;100015.72;;;7.78;96.18
50282;BME280;36176;51.506;10.272;2022-10-31T06:13:22;100023.63;;;7.78;96.50
50282;BME280;36176;51.506;10.272;2022-10-31T06:15:50;100028.13;;;7.73;96.42
50282;BME280;36176;51.506;10.272;2022-10-31T06:18:36;100030.00;;;7.70;95.93
50282;BME280;36176;51.506;10.272;2022-10-31T06:21:15;100035.28;;;7.70;96.44
50282;BME280;36176;51.506;10.272;2022-10-31T06:23:45;100033.47;;;7.72;96.70
50282;BME280;36176;51.506;10.272;2022-10-31T06:26:12;100038.66;;;7.75;96.44
50282;BME280;36176;51.506;10.272;2022-10-31T06:28:40;100041.28;;;7.75;96.42
50282;BME280;36176;51.506;10.272;2022-10-31T06:31:07;100045.63;;;7.77;96.58
50282;BME280;36176;51.506;10.272;2022-10-31T06:33:34;100044.78;;;7.75;95.87
50282;BME280;36176;51.506;10.272;2022-10-31T06:36:20;100045.72;;;7.73;96.60
50282;BME280;36176;51.506;10.272;2022-10-31T06:38:48;100050.78;;;7.80;96.27
50282;BME280;36176;51.506;10.272;2022-10-31T06:41:15;100052.44;;;7.86;96.17
50282;BME280;36176;51.506;10.272;2022-10-31T06:43:42;100059.41;;;7.87;96.36
50282;BME280;36176;51.506;10.272;2022-10-31T06:46:12;100061.09;;;7.89;96.36
50282;BME280;36176;51.506;10.272;2022-10-31T06:48:41;100066.31;;;7.93;96.31
50282;BME280;36176;51.506;10.272;2022-10-31T06:51:11;100068.00;;;7.95;97.05
50282;BME280;36176;51.506;10.272;2022-10-31T06:53:57;100066.97;;;8.01;97.15
50282;BME280;36176;51.506;10.272;2022-10-31T06:56:34;100067.75;;;8.04;97.00
50282;BME280;36176;51.506;10.272;2022-10-31T06:59:01;100072.03;;;8.08;96.87
50282;BME280;36176;51.506;10.272;2022-10-31T07:01:38;100075.41;;;8.14;96.99
50282;BME280;36176;51.506;10.272;2022-10-31T07:04:10;100061.25;;;8.16;97.13
50282;BME280;36176;51.506;10.272;2022-10-31T07:06:38;100063.66;;;8.25;96.85
50282;BME280;36176;51.506;10.272;2022-10-31T07:09:05;100064.25;;;8.35;97.44
50282;BME280;36176;51.506;10.272;2022-10-31T07:11:35;100067.59;;;8.43;96.49
50282;BME280;36176;51.506;10.272;2022-10-31T07:14:02;100068.22;;;8.51;96.67
50282;BME280;36176;51.506;10.272;2022-10-31T07:16:29;100073.34;;;8.58;96.44
50282;BME280;36176;51.506;10.272;2022-10-31T07:18:57;100072.31;;;8.62;97.09
50282;BME280;36176;51.506;10.272;2022-10-31T07:21:24;100074.69;;;8.71;97.48
50282;BME280;36176;51.506;10.272;2022-10-31T07:23:54;100070.06;;;8.79;97.19
50282;BME280;36176;51.506;10.272;2022-10-31T07:26:22;100069.81;;;8.87;97.43
50282;BME280;36176;51.506;10.272;2022-10-31T07:28:49;100068.50;;;9.00;98.07
50282;BME280;36176;51.506;10.272;2022-10-31T07:31:16;100078.63;;;9.15;97.98
50282;BME280;36176;51.506;10.272;2022-10-31T07:33:44;100071.09;;;9.30;98.08
50282;BME280;36176;51.506;10.272;2022-10-31T07:36:29;100066.19;;;9.46;97.52
50282;BME280;36176;51.506;10.272;2022-10-31T07:38:57;100065.66;;;9.61;97.28
50282;BME280;36176;51.506;10.272;2022-10-31T07:41:25;100067.69;;;9.79;97.50
50282;BME280;36176;51.506;10.272;2022-10-31T07:43:53;100072.25;;;10.01;96.77
50282;BME280;36176;51.506;10.272;2022-10-31T07:46:21;100060.00;;;10.22;96.30
50282;BME280;36176;51.506;10.272;2022-10-31T07:48:49;100066.19;;;10.46;96.07
50282;BME280;36176;51.506;10.272;2022-10-31T07:51:16;100060.22;;;10.64;95.96
50282;BME280;36176;51.506;10.272;2022-10-31T07:53:44;100060.34;;;10.85;95.20
50282;BME280;36176;51.506;10.272;2022-10-31T07:56:12;100069.16;;;11.07;94.82
50282;BME280;36176;51.506;10.272;2022-10-31T07:58:39;100057.69;;;11.29;94.29
50282;BME280;36176;51.506;10.272;2022-10-31T08:01:06;100065.44;;;11.56;93.62
50282;BME280;36176;51.506;10.272;2022-10-31T08:03:34;100050.25;;;11.80;93.12
50282;BME280;36176;51.506;10.272;2022-10-31T08:06:02;100060.06;;;12.00;92.85
50282;BME280;36176;51.506;10.272;2022-10-31T08:08:29;100049.00;;;12.29;92.11
50282;BME280;36176;51.506;10.272;2022-10-31T08:11:02;100056.44;;;12.61;91.75
50282;BME280;36176;51.506;10.272;2022-10-31T08:13:29;100049.63;;;12.93;90.78
50282;BME280;36176;51.506;10.272;2022-10-31T08:15:59;100057.91;;;13.23;89.75
50282;BME280;36176;51.506;10.272;2022-10-31T08:18:31;100051.31;;;13.49;89.56
50282;BME280;36176;51.506;10.272;2022-10-31T08:20:58;100050.25;;;13.71;88.33
50282;BME280;36176;51.506;10.272;2022-10-31T08:23:25;100054.94;;;13.83;87.03
50282;BME280;36176;51.506;10.272;2022-10-31T08:25:53;100053.81;;;14.04;86.92
50282;BME280;36176;51.506;10.272;2022-10-31T08:28:20;100048.44;;;14.39;86.13
50282;BME280;36176;51.506;10.272;2022-10-31T08:30:47;100058.94;;;14.76;84.48
50282;BME280;36176;51.506;10.272;2022-10-31T08:33:26;100052.31;;;15.15;82.66
50282;BME280;36176;51.506;10.272;2022-10-31T08:35:53;100055.03;;;15.45;81.72
50282;BME280;36176;51.506;10.272;2022-10-31T08:38:24;100052.81;;;15.67;80.52
50282;BME280;36176;51.506;10.272;2022-10-31T08:41:03;100057.44;;;15.95;78.14
50282;BME280;36176;51.506;10.272;2022-10-31T08:43:32;100058.09;;;16.13;77.92
50282;BME280;36176;51.506;10.272;2022-10-31T08:46:07;100057.56;;;16.37;77.72
50282;BME280;36176;51.506;10.272;2022-10-31T08:48:38;100049.53;;;16.66;75.71
50282;BME280;36176;51.506;10.272;2022-10-31T08:51:09;100045.31;;;16.90;74.83
50282;BME280;36176;51.506;10.272;2022-10-31T08:53:56;100045.44;;;17.16;73.99
50282;BME280;36176;51.506;10.272;2022-10-31T08:56:40;100052.78;;;17.27;73.13
50282;BME280;36176;51.506;10.272;2022-10-31T08:59:19;100049.88;;;17.57;70.42
50282;BME280;36176;51.506;10.272;2022-10-31T09:02:07;100046.31;;;17.83;71.57
50282;BME280;36176;51.506;10.272;2022-10-31T09:04:35;100031.78;;;18.13;68.69
50282;BME280;36176;51.506;10.272;2022-10-31T09:07:03;100030.81;;;18.14;67.30
50282;BME280;36176;51.506;10.272;2022-10-31T09:09:52;100031.03;;;18.37;68.27
50282;BME280;36176;51.506;10.272;2022-10-31T09:12:27;100028.97;;;18.66;66.25
50282;BME280;36176;51.506;10.272;2022-10-31T09:15:02;100022.84;;;18.77;65.96
50282;BME280;36176;51.506;10.272;2022-10-31T09:17:56;100031.81;;;19.01;65.10
50282;BME280;36176;51.506;10.272;2022-10-31T09:20:37;100027.91;;;19.53;66.30
50282;BME280;36176;51.506;10.272;2022-10-31T09:23:12;100014.66;;;20.10;65.45
50282;BME280;36176;51.506;10.272;2022-10-31T09:25:54;100022.38;;;20.48;63.13
50282;BME280;36176;51.506;10.272;2022-10-31T09:28:26;100023.50;;;20.68;61.67
50282;BME280;36176;51.506;10.272;2022-10-31T09:30:57;100017.00;;;20.82;61.58
50282;BME280;36176;51.506;10.272;2022-10-31T09:33:48;100014.78;;;20.98;63.04
50282;BME280;36176;51.506;10.272;2022-10-31T09:36:40;100012.81;;;21.44;61.29
50282;BME280;36176;51.506;10.272;2022-10-31T09:39:14;100003.50;;;21.48;59.12
50282;BME280;36176;51.506;10.272;2022-10-31T09:59:24;100010.88;;;20.46;58.99
50282;BME280;36176;51.506;10.272;2022-10-31T10:02:41;100007.91;;;20.15;60.84
50282;BME280;36176;51.506;10.272;2022-10-31T10:08:27;100002.59;;;20.60;62.66
50282;BME280;36176;51.506;10.272;2022-10-31T10:18:10;99989.88;;;21.17;58.54
50282;BME280;36176;51.506;10.272;2022-10-31T10:23:43;99985.09;;;21.53;59.46
50282;BME280;36176;51.506;10.272;2022-10-31T10:26:40;99981.22;;;21.88;58.89
50282;BME280;36176;51.506;10.272;2022-10-31T10:29:29;99984.22;;;21.95;58.70
50282;BME280;36176;51.506;10.272;2022-10-31T10:32:31;99975.50;;;21.81;57.51
50282;BME280;36176;51.506;10.272;2022-10-31T10:35:33;99975.34;;;21.41;58.39
50282;BME280;36176;51.506;10.272;2022-10-31T10:40:59;99980.56;;;20.67;60.77
50282;BME280;36176;51.506;10.272;2022-10-31T10:43:38;99977.25;;;20.63;61.07
50282;BME280;36176;51.506;10.272;2022-10-31T10:49:15;99964.28;;;20.68;60.70
50282;BME280;36176;51.506;10.272;2022-10-31T10:58:02;99963.28;;;20.47;62.69
50282;BME280;36176;51.506;10.272;2022-10-31T11:00:40;99956.47;;;20.43;62.25
50282;BME280;36176;51.506;10.272;2022-10-31T11:03:09;99961.56;;;20.23;63.29
50282;BME280;36176;51.506;10.272;2022-10-31T11:05:46;99955.25;;;20.02;63.37
50282;BME280;36176;51.506;10.272;2022-10-31T11:08:30;99949.34;;;19.85;64.12
50282;BME280;36176;51.506;10.272;2022-10-31T11:13:48;99943.72;;;19.53;65.40
50282;BME280;36176;51.506;10.272;2022-10-31T11:16:33;99940.78;;;19.56;66.75
50282;BME280;36176;51.506;10.272;2022-10-31T11:21:34;99927.97;;;19.48;66.01
50282;BME280;36176;51.506;10.272;2022-10-31T11:26:37;99921.03;;;19.22;66.87
50282;BME280;36176;51.506;10.272;2022-10-31T11:29:16;99912.03;;;19.23;68.93
50282;BME280;36176;51.506;10.272;2022-10-31T11:31:45;99921.34;;;19.41;68.14
50282;BME280;36176;51.506;10.272;2022-10-31T11:34:18;99916.41;;;19.59;66.38
50282;BME280;36176;51.506;10.272;2022-10-31T11:36:48;99919.84;;;19.72;64.56
50282;BME280;36176;51.506;10.272;2022-10-31T11:39:22;99915.34;;;19.84;64.67
50282;BME280;36176;51.506;10.272;2022-10-31T11:42:09;99913.06;;;20.02;64.31
50282;BME280;36176;51.506;10.272;2022-10-31T11:44:41;99905.69;;;20.15;63.01
50282;BME280;36176;51.506;10.272;2022-10-31T11:47:13;99908.75;;;20.11;60.73
50282;BME280;36176;51.506;10.272;2022-10-31T11:49:43;99911.59;;;20.09;62.82
50282;BME280;36176;51.506;10.272;2022-10-31T11:57:41;99895.06;;;20.03;62.74
50282;BME280;36176;51.506;10.272;2022-10-31T12:08:19;99885.66;;;20.19;63.21
50282;BME280;36176;51.506;10.272;2022-10-31T12:11:08;99879.16;;;20.22;62.33
50282;BME280;36176;51.506;10.272;2022-10-31T12:16:39;99866.72;;;20.10;62.02
50282;BME280;36176;51.506;10.272;2022-10-31T12:22:02;99870.38;;;19.75;62.42
50282;BME280;36176;51.506;10.272;2022-10-31T12:41:32;99841.59;;;19.42;64.94
50282;BME280;36176;51.506;10.272;2022-10-31T12:44:13;99833.75;;;19.27;65.87
50282;BME280;36176;51.506;10.272;2022-10-31T12:55:41;99827.50;;;19.73;65.72
50282;BME280;36176;51.506;10.272;2022-10-31T12:58:36;99823.16;;;19.60;65.49
50282;BME280;36176;51.506;10.272;2022-10-31T13:01:09;99822.69;;;19.54;65.86
50282;BME280;36176;51.506;10.272;2022-10-31T13:04:18;99817.78;;;19.48;66.53
50282;BME280;36176;51.506;10.272;2022-10-31T13:06:53;99813.38;;;19.36;66.38
50282;BME280;36176;51.506;10.272;2022-10-31T13:09:27;99803.94;;;19.19;66.90
50282;BME280;36176;51.506;10.272;2022-10-31T13:12:08;99806.75;;;19.06;67.67
50282;BME280;36176;51.506;10.272;2022-10-31T13:14:42;99801.22;;;18.97;68.16
50282;BME280;36176;51.506;10.272;2022-10-31T13:17:22;99793.03;;;18.98;68.71
50282;BME280;36176;51.506;10.272;2022-10-31T13:19:53;99788.00;;;18.94;68.58
50282;BME280;36176;51.506;10.272;2022-10-31T13:22:26;99785.81;;;18.87;70.12
50282;BME280;36176;51.506;10.272;2022-10-31T13:27:27;99772.91;;;18.68;69.24
50282;BME280;36176;51.506;10.272;2022-10-31T13:30:01;99767.50;;;18.57;70.29
50282;BME280;36176;51.506;10.272;2022-10-31T13:32:54;99770.66;;;18.51;70.51
50282;BME280;36176;51.506;10.272;2022-10-31T13:38:29;99764.31;;;18.52;71.57
50282;BME280;36176;51.506;10.272;2022-10-31T13:41:40;99769.16;;;18.47;72.73
50282;BME280;36176;51.506;10.272;2022-10-31T13:44:28;99757.59;;;18.46;72.05
50282;BME280;36176;51.506;10.272;2022-10-31T13:47:24;99761.22;;;18.45;72.51
50282;BME280;36176;51.506;10.272;2022-10-31T13:50:23;99751.97;;;18.49;72.99
50282;BME280;36176;51.506;10.272;2022-10-31T13:52:50;99744.66;;;18.52;72.54
50282;BME280;36176;51.506;10.272;2022-10-31T13:55:44;99748.44;;;18.49;71.73
50282;BME280;36176;51.506;10.272;2022-10-31T13:58:31;99744.72;;;18.39;71.98
50282;BME280;36176;51.506;10.272;2022-10-31T14:01:12;99741.03;;;18.28;72.40
50282;BME280;36176;51.506;10.272;2022-10-31T14:03:42;99743.47;;;18.07;73.25
50282;BME280;36176;51.506;10.272;2022-10-31T14:07:16;99743.78;;;17.92;74.18
50282;BME280;36176;51.506;10.272;2022-10-31T14:10:01;99736.50;;;17.81;74.91
50282;BME280;36176;51.506;10.272;2022-10-31T14:15:19;99751.59;;;17.69;75.20
50282;BME280;36176;51.506;10.272;2022-10-31T14:18:06;99735.16;;;17.62;75.93
50282;BME280;36176;51.506;10.272;2022-10-31T14:20:45;99740.69;;;17.59;75.31
50282;BME280;36176;51.506;10.272;2022-10-31T14:26:29;99734.94;;;17.53;76.36
50282;BME280;36176;51.506;10.272;2022-10-31T14:29:20;99734.31;;;17.49;76.66
50282;BME280;36176;51.506;10.272;2022-10-31T14:46:11;99720.09;;;17.36;77.38
50282;BME280;36176;51.506;10.272;2022-10-31T14:49:05;99715.59;;;17.36;77.11
50282;BME280;36176;51.506;10.272;2022-10-31T14:51:44;99716.66;;;17.34;77.01
50282;BME280;36176;51.506;10.272;2022-10-31T14:54:37;99717.19;;;17.26;77.18
50282;BME280;36176;51.506;10.272;2022-10-31T14:57:25;99713.78;;;17.24;78.00
50282;BME280;36176;51.506;10.272;2022-10-31T14:59:59;99710.53;;;17.19;77.81
50282;BME280;36176;51.506;10.272;2022-10-31T15:02:34;99714.44;;;17.15;77.75
50282;BME280;36176;51.506;10.272;2022-10-31T15:05:08;99700.50;;;17.10;77.63
50282;BME280;36176;51.506;10.272;2022-10-31T15:07:51;99698.91;;;17.07;77.91
50282;BME280;36176;51.506;10.272;2022-10-31T15:10:30;99699.09;;;17.04;77.89
50282;BME280;36176;51.506;10.272;2022-10-31T15:13:18;99691.53;;;16.98;78.18
50282;BME280;36176;51.506;10.272;2022-10-31T15:15:46;99683.91;;;16.92;78.13
50282;BME280;36176;51.506;10.272;2022-10-31T15:18:44;99683.38;;;16.87;78.72
50282;BME280;36176;51.506;10.272;2022-10-31T15:21:31;99683.78;;;16.80;78.33
50282;BME280;36176;51.506;10.272;2022-10-31T15:24:01;99680.88;;;16.71;79.17
50282;BME280;36176;51.506;10.272;2022-10-31T15:26:37;99674.13;;;16.65;79.87
50282;BME280;36176;51.506;10.272;2022-10-31T15:29:13;99671.88;;;16.59;79.12
50282;BME280;36176;51.506;10.272;2022-10-31T15:31:55;99666.88;;;16.54;80.57
50282;BME280;36176;51.506;10.272;2022-10-31T15:36:59;99668.66;;;16.41;80.02
50282;BME280;36176;51.506;10.272;2022-10-31T15:39:26;99661.03;;;16.35;80.28
50282;BME280;36176;51.506;10.272;2022-10-31T15:41:58;99660.41;;;16.31;80.04
50282;BME280;36176;51.506;10.272;2022-10-31T15:44:28;99657.94;;;16.28;80.39
50282;BME280;36176;51.506;10.272;2022-10-31T15:47:12;99658.34;;;16.22;80.88
50282;BME280;36176;51.506;10.272;2022-10-31T15:49:53;99661.44;;;16.16;80.89
50282;BME280;36176;51.506;10.272;2022-10-31T15:52:43;99666.13;;;16.12;81.02